Darstellungsparameter: Aktuell verwendete Einstellungen:
Skalierung der Graphiken ... ?
xyx+y,   Skalierungsfaktor:      Skalierung: Modus: x, Faktor: 1
Darstellungszeitraum ... ?
Vom - - bis: - -   Zeitraum: 13.05.2010 - 15.05.2010
Min/Max/Avg-Anzeige ... ?
Zeige MMA aktuell
Zeige MMA Monat
Zeige MMA alles
Zeige --A aktuell
Zeige --A Monat
Zeige --A alles
Keine MMA-Anzeige
MMA:
Average (ber die Originaldaten)
MMA-Basis: 13.05.2010 - 15.05.2010
Quicknavigation für Darstellung... ?
Tage:      1T, 2T, 3T, 5T -1T -2T -3T -5T +1T +2T +3T +5T
Wochen: 1W, 2W, 3W -1W -2W -3W +1W +2W +3W
Monate: 1M, 3M, 6M -1M -3M -6M +1M +3M +6M
Jahre:    1J, 3J, 5J, 10J -1J -3J -5J -10J +1J +3J +5J +10J
Nutze für die Darstellung ... ?
Originaldaten oder Mittelwerte auf ...
Stundenbasis Tagesbasis Wochenbasis
Monatsbasis Jahresbasis      Datenbasis: Original-Daten
Darstellen als:
Statistik (Auto) Statistik J:M      Darstellung:
Zur Graphik,    zurück zur Übersicht aller Sensoren.
 
Tabellarische Datenbersicht: ?
 
Sensor: Nr:Datum:Temp:Abs-Feuchte:Windchill:Wind:
Aussen-T/F 1 13-05-2010 00:05:04 7.7 C 6.57 g/m*3 7.7 C 0 km/h
2 13-05-2010 00:17:04 7.6 C 6.53 g/m*3 7.6 C 0 km/h
3 13-05-2010 00:29:04 7.5 C 6.4 g/m*3 7.5 C 0 km/h
4 13-05-2010 00:41:04 7.6 C 6.44 g/m*3 7.6 C 0 km/h
5 13-05-2010 00:53:04 7.5 C 6.4 g/m*3 7.5 C 0 km/h
6 13-05-2010 01:05:04 7.4 C 6.36 g/m*3 7.4 C 0 km/h
7 13-05-2010 01:17:04 7.3 C 6.48 g/m*3 7.3 C 0 km/h
8 13-05-2010 01:29:04 7.3 C 6.48 g/m*3 7.3 C 0 km/h
9 13-05-2010 01:41:04 7.3 C 6.56 g/m*3 7.3 C 0 km/h
10 13-05-2010 01:53:04 7.4 C 6.68 g/m*3 7.4 C 0 km/h
11 13-05-2010 02:05:04 7.5 C 6.72 g/m*3 7.5 C 0 km/h
12 13-05-2010 02:17:04 7.4 C 6.6 g/m*3 7.4 C 0 km/h
13 13-05-2010 02:29:04 7.4 C 6.52 g/m*3 7.4 C 0 km/h
14 13-05-2010 02:41:04 7.4 C 6.52 g/m*3 7.4 C 0 km/h
15 13-05-2010 02:53:04 7.4 C 6.52 g/m*3 7.4 C 0 km/h
16 13-05-2010 03:05:04 7.4 C 6.52 g/m*3 7.4 C 0 km/h
17 13-05-2010 03:17:04 7.4 C 6.52 g/m*3 7.4 C 0 km/h
18 13-05-2010 03:29:04 7.3 C 6.48 g/m*3 7.3 C 0 km/h
19 13-05-2010 03:41:05 7.3 C 6.56 g/m*3 7.3 C 0 km/h
20 13-05-2010 03:53:05 7.1 C 6.47 g/m*3 7.1 C 0 km/h
21 13-05-2010 04:05:05 6.9 C 6.54 g/m*3 6.9 C 0 km/h
22 13-05-2010 04:17:05 7 C 6.51 g/m*3 7 C 0 km/h
23 13-05-2010 04:29:05 7.1 C 6.63 g/m*3 7.1 C 0 km/h
24 13-05-2010 04:41:05 7.1 C 6.63 g/m*3 7.1 C 0 km/h
25 13-05-2010 04:53:05 6.9 C 6.62 g/m*3 6.9 C 0 km/h
Sensor: Nr:Datum:Temp:Abs-Feuchte:Windchill:Wind:
Aussen-T/F 26 13-05-2010 05:05:05 6.9 C 6.7 g/m*3 6.9 C 0 km/h
27 13-05-2010 05:17:05 6.8 C 6.65 g/m*3 6.8 C 0 km/h
28 13-05-2010 05:29:05 6.8 C 6.65 g/m*3 6.8 C 0 km/h
29 13-05-2010 05:41:05 6.7 C 6.61 g/m*3 6.7 C 0 km/h
30 13-05-2010 05:53:05 6.6 C 6.64 g/m*3 6.6 C 0 km/h
31 13-05-2010 06:05:05 6.6 C 6.64 g/m*3 6.6 C 0 km/h
32 13-05-2010 06:17:05 6.7 C 6.69 g/m*3 6.7 C 0 km/h
33 13-05-2010 06:29:05 6.7 C 6.69 g/m*3 6.7 C 0 km/h
34 13-05-2010 06:41:05 6.6 C 6.64 g/m*3 6.6 C 0 km/h
35 13-05-2010 06:53:05 6.6 C 6.64 g/m*3 6.6 C 0 km/h
36 13-05-2010 07:05:05 6.7 C 6.76 g/m*3 6.7 C 0 km/h
37 13-05-2010 07:17:05 6.7 C 6.76 g/m*3 6.7 C 0 km/h
38 13-05-2010 07:29:05 6.9 C 6.77 g/m*3 6.9 C 0 km/h
39 13-05-2010 07:41:05 6.9 C 6.7 g/m*3 6.9 C 0 km/h
40 13-05-2010 07:53:01 6.8 C 6.5 g/m*3 6.8 C 0 km/h
41 13-05-2010 08:05:01 6.8 C 6.42 g/m*3 6.8 C 0 km/h
42 13-05-2010 08:17:02 6.8 C 6.35 g/m*3 6.8 C 0 km/h
43 13-05-2010 08:29:02 6.9 C 6.31 g/m*3 6.9 C 0 km/h
44 13-05-2010 08:41:01 7 C 6.12 g/m*3 7 C 0 km/h
45 13-05-2010 08:53:02 7.2 C 6.12 g/m*3 7.2 C 0 km/h
46 13-05-2010 09:05:01 7.5 C 6.24 g/m*3 7.5 C 0 km/h
47 13-05-2010 09:17:01 7.8 C 6.2 g/m*3 7.8 C 0 km/h
48 13-05-2010 09:29:01 7.9 C 6 g/m*3 7.9 C 0 km/h
49 13-05-2010 09:41:01 8.2 C 5.86 g/m*3 8.2 C 0 km/h
50 13-05-2010 09:53:02 8.3 C 5.65 g/m*3 8.3 C 0 km/h
Sensor: Nr:Datum:Temp:Abs-Feuchte:Windchill:Wind:
Aussen-T/F 51 13-05-2010 10:05:01 8.9 C 5.69 g/m*3 8.9 C 0 km/h
52 13-05-2010 10:17:02 9.1 C 5.41 g/m*3 9.1 C 0 km/h
53 13-05-2010 10:29:02 9.7 C 5.62 g/m*3 9.7 C 0 km/h
54 13-05-2010 10:41:02 9.7 C 5.16 g/m*3 9.7 C 0 km/h
55 13-05-2010 10:53:01 9.9 C 5.23 g/m*3 9.9 C 0 km/h
56 13-05-2010 11:05:02 10.2 C 5.23 g/m*3 10.2 C 0 km/h
57 13-05-2010 11:17:01 10 C 4.98 g/m*3 10 C 0 km/h
58 13-05-2010 11:29:01 10.1 C 4.92 g/m*3 10.1 C 0 km/h
59 13-05-2010 11:41:02 9.5 C 5.01 g/m*3 9.5 C 0 km/h
60 13-05-2010 11:53:02 9.7 C 5.16 g/m*3 9.7 C 0 km/h
61 13-05-2010 12:05:02 9.7 C 4.89 g/m*3 9.7 C 0 km/h
62 13-05-2010 12:17:01 9.5 C 4.92 g/m*3 9.5 C 0 km/h
63 13-05-2010 12:29:01 10.2 C 4.95 g/m*3 10.2 C 0 km/h
64 13-05-2010 12:41:02 10.1 C 4.63 g/m*3 10.1 C 0 km/h
65 13-05-2010 12:53:02 10.8 C 4.84 g/m*3 10.8 C 0 km/h
66 13-05-2010 13:05:02 11 C 4.8 g/m*3 11 C 0 km/h
67 13-05-2010 13:17:01 10.1 C 4.92 g/m*3 10.1 C 0 km/h
68 13-05-2010 13:29:01 9.3 C 4.94 g/m*3 9.3 C 0 km/h
69 13-05-2010 13:41:02 8.9 C 5.08 g/m*3 8.9 C 0 km/h
70 13-05-2010 13:53:02 9.4 C 5.16 g/m*3 9.4 C 0 km/h
71 13-05-2010 14:05:02 10 C 5.17 g/m*3 10 C 0 km/h
72 13-05-2010 14:17:02 10.5 C 5.14 g/m*3 10.5 C 0 km/h
73 13-05-2010 14:29:02 10.9 C 5.07 g/m*3 10.9 C 0 km/h
74 13-05-2010 14:41:02 10.6 C 4.78 g/m*3 10.6 C 0 km/h
75 13-05-2010 14:53:01 11 C 4.9 g/m*3 11 C 0 km/h
Sensor: Nr:Datum:Temp:Abs-Feuchte:Windchill:Wind:
Aussen-T/F 76 13-05-2010 15:05:02 11 C 4.8 g/m*3 11 C 0 km/h
77 13-05-2010 15:17:02 10.5 C 4.85 g/m*3 10.5 C 0 km/h
78 13-05-2010 15:29:02 10 C 4.79 g/m*3 10 C 0 km/h
79 13-05-2010 15:41:02 9.8 C 5.1 g/m*3 9.8 C 0 km/h
80 13-05-2010 15:53:02 9.2 C 5.36 g/m*3 9.2 C 0 km/h
81 13-05-2010 16:05:01 8.7 C 5.53 g/m*3 8.7 C 0 km/h
82 13-05-2010 16:17:02 8.5 C 5.81 g/m*3 8.5 C 0 km/h
83 13-05-2010 16:29:02 8.6 C 6.02 g/m*3 8.6 C 0 km/h
84 13-05-2010 16:41:01 8.6 C 6.19 g/m*3 8.6 C 0 km/h
85 13-05-2010 16:53:02 8.9 C 6.57 g/m*3 8.9 C 0 km/h
86 13-05-2010 17:05:01 8.4 C 6.19 g/m*3 8.4 C 0 km/h
87 13-05-2010 17:17:02 8.2 C 6.28 g/m*3 8.2 C 0 km/h
88 13-05-2010 17:29:03 8.2 C 6.36 g/m*3 8.2 C 0 km/h
89 13-05-2010 17:41:01 8.2 C 6.53 g/m*3 8.2 C 0 km/h
90 13-05-2010 17:53:02 8.1 C 6.49 g/m*3 8.1 C 0 km/h
91 13-05-2010 18:05:02 8.3 C 6.66 g/m*3 8.3 C 0 km/h
92 13-05-2010 18:17:02 9 C 7.05 g/m*3 9 C 0 km/h
93 13-05-2010 18:29:02 8.9 C 7.1 g/m*3 8.9 C 0 km/h
94 13-05-2010 18:41:02 8.7 C 7.01 g/m*3 8.7 C 0 km/h
95 13-05-2010 18:53:02 7.9 C 6.74 g/m*3 7.9 C 0 km/h
96 13-05-2010 19:05:02 7.7 C 6.81 g/m*3 7.7 C 0 km/h
97 13-05-2010 19:17:01 7.5 C 6.8 g/m*3 7.5 C 0 km/h
98 13-05-2010 19:29:01 7.3 C 6.72 g/m*3 7.3 C 0 km/h
99 13-05-2010 19:41:02 7.3 C 6.79 g/m*3 7.3 C 0 km/h
100 13-05-2010 19:53:02 7.2 C 6.75 g/m*3 7.2 C 0 km/h
Sensor: Nr:Datum:Temp:Abs-Feuchte:Windchill:Wind:
Aussen-T/F 101 13-05-2010 20:05:02 7.3 C 6.87 g/m*3 7.3 C 0 km/h
102 13-05-2010 20:17:02 7.4 C 6.92 g/m*3 7.4 C 0 km/h
103 13-05-2010 20:29:02 7.4 C 7 g/m*3 7.4 C 0 km/h
104 13-05-2010 20:41:02 7.5 C 7.04 g/m*3 7.5 C 0 km/h
105 13-05-2010 20:53:01 7.6 C 7.09 g/m*3 7.6 C 0 km/h
106 13-05-2010 21:05:02 7.5 C 7.12 g/m*3 7.5 C 0 km/h
107 13-05-2010 21:17:01 7.5 C 7.12 g/m*3 7.5 C 0 km/h
108 13-05-2010 21:29:01 7.4 C 7.08 g/m*3 7.4 C 0 km/h
109 13-05-2010 21:41:01 7.4 C 7.08 g/m*3 7.4 C 0 km/h
110 13-05-2010 21:53:01 7.4 C 7.16 g/m*3 7.4 C 0 km/h
111 13-05-2010 22:05:02 7.4 C 7.16 g/m*3 7.4 C 0 km/h
112 13-05-2010 22:17:01 7.4 C 7.16 g/m*3 7.4 C 0 km/h
113 13-05-2010 22:29:01 7.3 C 7.11 g/m*3 7.3 C 0 km/h
114 13-05-2010 22:41:02 7.2 C 7.06 g/m*3 7.2 C 0 km/h
115 13-05-2010 22:54:02 7.2 C 7.06 g/m*3 7.2 C 0 km/h
116 13-05-2010 23:06:02 7.2 C 7.06 g/m*3 7.2 C 0 km/h
117 13-05-2010 23:18:03 7.3 C 7.11 g/m*3 7.3 C 0 km/h
118 13-05-2010 23:30:03 7.3 C 7.19 g/m*3 7.3 C 0 km/h
119 13-05-2010 23:42:03 7.2 C 7.14 g/m*3 7.2 C 0 km/h
120 13-05-2010 23:54:03 7.2 C 7.14 g/m*3 7.2 C 0 km/h
121 14-05-2010 00:06:03 7 C 7.05 g/m*3 7 C 0 km/h
122 14-05-2010 00:18:03 6.9 C 7.16 g/m*3 6.9 C 0 km/h
123 14-05-2010 00:30:03 6.9 C 7.16 g/m*3 6.9 C 0 km/h
124 14-05-2010 00:42:03 7 C 7.21 g/m*3 7 C 0 km/h
125 14-05-2010 00:54:03 7 C 7.21 g/m*3 7 C 0 km/h
Sensor: Nr:Datum:Temp:Abs-Feuchte:Windchill:Wind:
Aussen-T/F 126 14-05-2010 01:06:03 6.9 C 7.24 g/m*3 6.9 C 0 km/h
127 14-05-2010 01:18:03 7 C 7.21 g/m*3 7 C 0 km/h
128 14-05-2010 01:30:03 7.1 C 7.25 g/m*3 7.1 C 0 km/h
129 14-05-2010 01:42:03 7.1 C 7.25 g/m*3 7.1 C 0 km/h
130 14-05-2010 01:54:03 7.1 C 7.25 g/m*3 7.1 C 0 km/h
131 14-05-2010 02:06:03 7.1 C 7.25 g/m*3 7.1 C 0 km/h
132 14-05-2010 02:18:03 7 C 7.21 g/m*3 7 C 0 km/h
133 14-05-2010 02:30:03 6.9 C 7.24 g/m*3 6.9 C 0 km/h
134 14-05-2010 02:42:03 7 C 7.21 g/m*3 7 C 0 km/h
135 14-05-2010 02:54:03 7 C 7.28 g/m*3 7 C 0 km/h
136 14-05-2010 03:06:03 7 C 7.28 g/m*3 7 C 0 km/h
137 14-05-2010 03:18:03 6.9 C 7.24 g/m*3 6.9 C 0 km/h
138 14-05-2010 03:30:04 7 C 7.28 g/m*3 7 C 0 km/h
139 14-05-2010 03:42:04 7 C 7.28 g/m*3 7 C 0 km/h
140 14-05-2010 03:54:04 7 C 7.28 g/m*3 7 C 0 km/h
141 14-05-2010 04:06:04 7 C 7.28 g/m*3 7 C 0 km/h
142 14-05-2010 04:18:04 7 C 7.28 g/m*3 7 C 0 km/h
143 14-05-2010 04:30:04 6.9 C 7.24 g/m*3 6.9 C 0 km/h
144 14-05-2010 04:42:04 6.9 C 7.24 g/m*3 6.9 C 0 km/h
145 14-05-2010 04:54:04 6.9 C 7.24 g/m*3 6.9 C 0 km/h
146 14-05-2010 05:06:04 6.8 C 7.19 g/m*3 6.8 C 0 km/h
147 14-05-2010 05:18:04 6.9 C 7.24 g/m*3 6.9 C 0 km/h
148 14-05-2010 05:30:04 6.8 C 7.27 g/m*3 6.8 C 0 km/h
149 14-05-2010 05:42:04 6.9 C 7.31 g/m*3 6.9 C 0 km/h
150 14-05-2010 05:54:04 7 C 7.28 g/m*3 7 C 0 km/h
Sensor: Nr:Datum:Temp:Abs-Feuchte:Windchill:Wind:
Aussen-T/F 151 14-05-2010 06:06:04 7.1 C 7.33 g/m*3 7.1 C 0 km/h
152 14-05-2010 06:18:04 7.1 C 7.33 g/m*3 7.1 C 0 km/h
153 14-05-2010 06:30:04 7 C 7.28 g/m*3 7 C 0 km/h
154 14-05-2010 06:42:04 7.1 C 7.33 g/m*3 7.1 C 0 km/h
155 14-05-2010 06:54:04 7.2 C 7.38 g/m*3 7.2 C 0 km/h
156 14-05-2010 07:06:02 7.2 C 7.3 g/m*3 7.2 C 0 km/h
157 14-05-2010 07:18:02 7.3 C 7.35 g/m*3 7.3 C 0 km/h
158 14-05-2010 07:30:02 7.5 C 7.44 g/m*3 7.5 C 0 km/h
159 14-05-2010 07:42:02 7.5 C 7.44 g/m*3 7.5 C 0 km/h
160 14-05-2010 07:54:01 7.5 C 7.36 g/m*3 7.5 C 0 km/h
161 14-05-2010 08:06:02 7.7 C 7.38 g/m*3 7.7 C 0 km/h
162 14-05-2010 08:18:01 7.9 C 7.47 g/m*3 7.9 C 0 km/h
163 14-05-2010 08:30:01 8.1 C 7.41 g/m*3 8.1 C 0 km/h
164 14-05-2010 08:42:02 7.9 C 7.31 g/m*3 7.9 C 0 km/h
165 14-05-2010 08:54:02 8 C 7.19 g/m*3 8 C 0 km/h
166 14-05-2010 09:06:02 8 C 7.19 g/m*3 8 C 0 km/h
167 14-05-2010 09:18:01 7.9 C 7.15 g/m*3 7.9 C 0 km/h
168 14-05-2010 09:30:01 8 C 7.03 g/m*3 8 C 0 km/h
169 14-05-2010 09:42:02 8.6 C 7.39 g/m*3 8.6 C 0 km/h
170 14-05-2010 09:54:02 8.4 C 7.13 g/m*3 8.4 C 0 km/h
171 14-05-2010 10:06:02 8.7 C 7.18 g/m*3 8.7 C 0 km/h
172 14-05-2010 10:18:02 9.4 C 7.33 g/m*3 9.4 C 0 km/h
173 14-05-2010 10:30:02 9.5 C 7.01 g/m*3 9.5 C 0 km/h
174 14-05-2010 10:42:02 10 C 7.24 g/m*3 10 C 0 km/h
175 14-05-2010 10:54:01 10.3 C 7.18 g/m*3 10.3 C 0 km/h
Sensor: Nr:Datum:Temp:Abs-Feuchte:Windchill:Wind:
Aussen-T/F 176 14-05-2010 11:06:02 11 C 7.31 g/m*3 11 C 0 km/h
177 14-05-2010 11:18:02 10.5 C 6.6 g/m*3 10.5 C 0 km/h
178 14-05-2010 11:30:02 10.1 C 6.34 g/m*3 10.1 C 0 km/h
179 14-05-2010 11:42:02 10.4 C 6.75 g/m*3 10.4 C 0 km/h
180 14-05-2010 11:54:02 9.9 C 6.82 g/m*3 9.9 C 0 km/h
181 14-05-2010 12:06:01 9.1 C 6.39 g/m*3 9.1 C 0 km/h
182 14-05-2010 12:18:02 9 C 6.44 g/m*3 9 C 0 km/h
183 14-05-2010 12:30:02 9.3 C 7.1 g/m*3 9.3 C 0 km/h
184 14-05-2010 12:42:01 9.3 C 7.28 g/m*3 9.3 C 0 km/h
185 14-05-2010 12:54:02 9.1 C 7.28 g/m*3 9.1 C 0 km/h
186 14-05-2010 13:06:01 9.3 C 7.46 g/m*3 9.3 C 0 km/h
187 14-05-2010 13:18:01 9.5 C 7.65 g/m*3 9.5 C 0 km/h
188 14-05-2010 13:30:01 9.6 C 7.69 g/m*3 9.6 C 0 km/h
189 14-05-2010 13:42:02 9.7 C 7.74 g/m*3 9.7 C 0 km/h
190 14-05-2010 13:54:02 9.2 C 7.41 g/m*3 9.2 C 0 km/h
191 14-05-2010 14:06:01 9 C 7.41 g/m*3 9 C 0 km/h
192 14-05-2010 14:18:02 9.2 C 7.59 g/m*3 9.2 C 0 km/h
193 14-05-2010 14:30:02 9.5 C 7.74 g/m*3 9.5 C 0 km/h
194 14-05-2010 14:42:02 9.7 C 7.84 g/m*3 9.7 C 0 km/h
195 14-05-2010 14:54:02 10.5 C 8.15 g/m*3 10.5 C 0 km/h
196 14-05-2010 15:06:02 11.2 C 8.21 g/m*3 11.2 C 0 km/h
197 14-05-2010 15:18:01 11.7 C 7.95 g/m*3 11.7 C 0 km/h
198 14-05-2010 15:30:01 12 C 7.67 g/m*3 12 C 0 km/h
199 14-05-2010 15:42:02 12.2 C 7.23 g/m*3 12.2 C 0 km/h
200 14-05-2010 15:54:02 12.2 C 6.91 g/m*3 12.2 C 0 km/h
Sensor: Nr:Datum:Temp:Abs-Feuchte:Windchill:Wind:
Aussen-T/F 201 14-05-2010 16:06:02 12.6 C 6.97 g/m*3 12.6 C 0 km/h
202 14-05-2010 16:18:01 12.8 C 7.06 g/m*3 12.8 C 0 km/h
203 14-05-2010 16:30:01 13.3 C 6.93 g/m*3 13.3 C 0 km/h
204 14-05-2010 16:42:02 13.4 C 6.63 g/m*3 13.4 C 0 km/h
205 14-05-2010 16:54:02 12.8 C 6.27 g/m*3 12.8 C 0 km/h
206 14-05-2010 17:06:02 12.2 C 6.37 g/m*3 12.2 C 0 km/h
207 14-05-2010 17:18:02 11.9 C 6.25 g/m*3 11.9 C 0 km/h
208 14-05-2010 17:30:02 11.4 C 6.77 g/m*3 11.4 C 0 km/h
209 14-05-2010 17:42:02 11 C 6.81 g/m*3 11 C 0 km/h
210 14-05-2010 17:54:02 11.2 C 6.79 g/m*3 11.2 C 0 km/h
211 14-05-2010 18:06:02 11.5 C 6.71 g/m*3 11.5 C 0 km/h
212 14-05-2010 18:18:03 11.8 C 6.74 g/m*3 11.8 C 0 km/h
213 14-05-2010 18:30:03 12 C 6.82 g/m*3 12 C 0 km/h
214 14-05-2010 18:42:02 11.5 C 6.71 g/m*3 11.5 C 0 km/h
215 14-05-2010 18:54:02 11 C 6.81 g/m*3 11 C 0 km/h
216 14-05-2010 19:06:02 10.5 C 6.89 g/m*3 10.5 C 0 km/h
217 14-05-2010 19:18:03 10.3 C 6.99 g/m*3 10.3 C 0 km/h
218 14-05-2010 19:30:03 10.4 C 7.13 g/m*3 10.4 C 0 km/h
219 14-05-2010 19:42:02 10.5 C 6.98 g/m*3 10.5 C 0 km/h
220 14-05-2010 19:54:02 10.6 C 7.03 g/m*3 10.6 C 0 km/h
221 14-05-2010 20:06:02 10.5 C 7.08 g/m*3 10.5 C 0 km/h
222 14-05-2010 20:18:02 10.2 C 6.95 g/m*3 10.2 C 0 km/h
223 14-05-2010 20:30:02 9.9 C 6.91 g/m*3 9.9 C 0 km/h
224 14-05-2010 20:42:02 9.6 C 6.78 g/m*3 9.6 C 0 km/h
225 14-05-2010 20:54:02 9.5 C 6.92 g/m*3 9.5 C 0 km/h
Sensor: Nr:Datum:Temp:Abs-Feuchte:Windchill:Wind:
Aussen-T/F 226 14-05-2010 21:06:02 9.3 C 6.83 g/m*3 9.3 C 0 km/h
227 14-05-2010 21:18:02 9.2 C 6.88 g/m*3 9.2 C 0 km/h
228 14-05-2010 21:30:02 9.1 C 6.83 g/m*3 9.1 C 0 km/h
229 14-05-2010 21:42:02 9.1 C 6.92 g/m*3 9.1 C 0 km/h
230 14-05-2010 21:54:02 9 C 6.88 g/m*3 9 C 0 km/h
231 14-05-2010 22:06:02 9.1 C 7.01 g/m*3 9.1 C 0 km/h
232 14-05-2010 22:18:02 9.1 C 7.01 g/m*3 9.1 C 0 km/h
233 14-05-2010 22:30:02 9.1 C 7.1 g/m*3 9.1 C 0 km/h
234 14-05-2010 22:42:02 9.1 C 7.1 g/m*3 9.1 C 0 km/h
235 14-05-2010 22:55:03 9 C 7.14 g/m*3 9 C 0 km/h
236 14-05-2010 23:07:03 8.6 C 7.13 g/m*3 8.6 C 0 km/h
237 14-05-2010 23:19:03 8.2 C 7.12 g/m*3 8.2 C 0 km/h
238 14-05-2010 23:31:03 8.2 C 7.2 g/m*3 8.2 C 0 km/h
239 14-05-2010 23:43:03 8.1 C 7.16 g/m*3 8.1 C 0 km/h
240 14-05-2010 23:55:03 8.1 C 7.24 g/m*3 8.1 C 0 km/h
241 15-05-2010 00:07:03 8 C 7.19 g/m*3 8 C 0 km/h
242 15-05-2010 00:19:03 8 C 7.19 g/m*3 8 C 0 km/h
243 15-05-2010 00:31:04 7.9 C 7.23 g/m*3 7.9 C 0 km/h
244 15-05-2010 00:43:04 7.8 C 7.18 g/m*3 7.8 C 0 km/h
245 15-05-2010 00:55:04 7.8 C 7.18 g/m*3 7.8 C 0 km/h
246 15-05-2010 01:07:04 7.9 C 7.23 g/m*3 7.9 C 0 km/h
247 15-05-2010 01:19:04 7.8 C 7.18 g/m*3 7.8 C 0 km/h
248 15-05-2010 01:31:04 7.6 C 7.09 g/m*3 7.6 C 0 km/h
249 15-05-2010 01:43:04 7.6 C 7.09 g/m*3 7.6 C 0 km/h
250 15-05-2010 01:55:04 7.6 C 7.09 g/m*3 7.6 C 0 km/h
Sensor: Nr:Datum:Temp:Abs-Feuchte:Windchill:Wind:
Aussen-T/F 251 15-05-2010 02:07:04 7.5 C 7.04 g/m*3 7.5 C 0 km/h
252 15-05-2010 02:19:04 7.5 C 7.12 g/m*3 7.5 C 0 km/h
253 15-05-2010 02:31:04 7.6 C 7.17 g/m*3 7.6 C 0 km/h
254 15-05-2010 02:43:04 7.8 C 7.26 g/m*3 7.8 C 0 km/h
255 15-05-2010 02:55:04 7.8 C 7.26 g/m*3 7.8 C 0 km/h
256 15-05-2010 03:07:04 7.6 C 7.17 g/m*3 7.6 C 0 km/h
257 15-05-2010 03:19:04 7.6 C 7.17 g/m*3 7.6 C 0 km/h
258 15-05-2010 03:31:04 7.6 C 7.25 g/m*3 7.6 C 0 km/h
259 15-05-2010 03:43:04 7.6 C 7.25 g/m*3 7.6 C 0 km/h
260 15-05-2010 03:55:04 7.6 C 7.25 g/m*3 7.6 C 0 km/h
261 15-05-2010 04:07:04 7.6 C 7.25 g/m*3 7.6 C 0 km/h
262 15-05-2010 04:19:04 7.7 C 7.3 g/m*3 7.7 C 0 km/h
263 15-05-2010 04:31:04 7.6 C 7.25 g/m*3 7.6 C 0 km/h
264 15-05-2010 04:43:05 7.6 C 7.25 g/m*3 7.6 C 0 km/h
265 15-05-2010 04:55:05 7.5 C 7.2 g/m*3 7.5 C 0 km/h
266 15-05-2010 05:07:05 7.4 C 7.24 g/m*3 7.4 C 0 km/h
267 15-05-2010 05:19:05 7.3 C 7.19 g/m*3 7.3 C 0 km/h
268 15-05-2010 05:31:05 7.3 C 7.19 g/m*3 7.3 C 0 km/h
269 15-05-2010 05:43:05 7.2 C 7.14 g/m*3 7.2 C 0 km/h
270 15-05-2010 05:55:05 7.1 C 7.1 g/m*3 7.1 C 0 km/h
271 15-05-2010 06:07:05 7.1 C 7.1 g/m*3 7.1 C 0 km/h
272 15-05-2010 06:19:05 7.1 C 7.1 g/m*3 7.1 C 0 km/h
273 15-05-2010 06:31:05 7.1 C 7.18 g/m*3 7.1 C 0 km/h
274 15-05-2010 06:43:05 7.1 C 7.18 g/m*3 7.1 C 0 km/h
275 15-05-2010 06:55:05 7.1 C 7.18 g/m*3 7.1 C 0 km/h
Sensor: Nr:Datum:Temp:Abs-Feuchte:Windchill:Wind:
Aussen-T/F 276 15-05-2010 07:07:05 7.1 C 7.18 g/m*3 7.1 C 0 km/h
277 15-05-2010 07:19:05 7.4 C 7.32 g/m*3 7.4 C 0 km/h
278 15-05-2010 07:31:05 7.5 C 7.36 g/m*3 7.5 C 0 km/h
279 15-05-2010 07:43:05 7.8 C 7.51 g/m*3 7.8 C 0 km/h
280 15-05-2010 07:55:02 8.2 C 7.62 g/m*3 8.2 C 0 km/h
281 15-05-2010 08:07:02 8.3 C 7.59 g/m*3 8.3 C 0 km/h
282 15-05-2010 08:19:02 8.2 C 7.29 g/m*3 8.2 C 0 km/h
283 15-05-2010 08:31:03 8.6 C 7.39 g/m*3 8.6 C 0 km/h
284 15-05-2010 08:43:03 8.5 C 7 g/m*3 8.5 C 0 km/h
285 15-05-2010 08:55:02 8.8 C 7.05 g/m*3 8.8 C 0 km/h
286 15-05-2010 09:07:02 9 C 6.88 g/m*3 9 C 0 km/h
287 15-05-2010 09:19:02 9.3 C 6.92 g/m*3 9.3 C 0 km/h
288 15-05-2010 09:31:02 9.5 C 6.83 g/m*3 9.5 C 0 km/h
289 15-05-2010 09:43:02 9.6 C 6.78 g/m*3 9.6 C 0 km/h
290 15-05-2010 09:55:01 10 C 6.67 g/m*3 10 C 0 km/h
291 15-05-2010 10:07:02 10.5 C 6.6 g/m*3 10.5 C 0 km/h
292 15-05-2010 10:19:01 10.7 C 6.48 g/m*3 10.7 C 0 km/h
293 15-05-2010 10:31:02 10.6 C 6.34 g/m*3 10.6 C 0 km/h
294 15-05-2010 10:43:02 11.1 C 6.35 g/m*3 11.1 C 0 km/h
295 15-05-2010 10:55:02 11.1 C 6.35 g/m*3 11.1 C 0 km/h
296 15-05-2010 11:07:02 10.9 C 6.27 g/m*3 10.9 C 0 km/h
297 15-05-2010 11:19:01 10.8 C 6.23 g/m*3 10.8 C 0 km/h
298 15-05-2010 11:31:02 10.9 C 6.17 g/m*3 10.9 C 0 km/h
299 15-05-2010 11:43:02 11.5 C 5.89 g/m*3 11.5 C 0 km/h
300 15-05-2010 11:55:02 11.9 C 6.04 g/m*3 11.9 C 0 km/h
Sensor: Nr:Datum:Temp:Abs-Feuchte:Windchill:Wind:
Aussen-T/F 301 15-05-2010 12:07:02 11.2 C 5.68 g/m*3 11.2 C 0 km/h
302 15-05-2010 12:19:02 11.1 C 5.64 g/m*3 11.1 C 0 km/h
303 15-05-2010 12:31:02 11.2 C 5.57 g/m*3 11.2 C 0 km/h
304 15-05-2010 12:43:02 12.4 C 5.46 g/m*3 12.4 C 0 km/h
305 15-05-2010 12:55:02 12.3 C 4.78 g/m*3 12.3 C 0 km/h
306 15-05-2010 13:07:02 13.9 C 5.04 g/m*3 13.9 C 0 km/h
307 15-05-2010 13:19:03 12 C 4.58 g/m*3 12 C 0 km/h
308 15-05-2010 13:31:02 11.1 C 5.14 g/m*3 11.1 C 0 km/h
309 15-05-2010 13:43:02 11.2 C 4.87 g/m*3 11.2 C 0 km/h
310 15-05-2010 13:55:02 12.1 C 4.5 g/m*3 12.1 C 0 km/h
311 15-05-2010 14:07:02 13.7 C 4.5 g/m*3 13.7 C 0 km/h
312 15-05-2010 14:19:02 15 C 4.62 g/m*3 15 C 0 km/h
313 15-05-2010 14:31:02 14.7 C 4.15 g/m*3 14.7 C 0 km/h
314 15-05-2010 14:43:02 14 C 3.98 g/m*3 14 C 0 km/h
315 15-05-2010 14:55:01 13.9 C 3.72 g/m*3 13.9 C 0 km/h
316 15-05-2010 15:07:01 14.3 C 3.56 g/m*3 14.3 C 0 km/h
317 15-05-2010 15:19:01 15.2 C 3.24 g/m*3 15.2 C 0 km/h
318 15-05-2010 15:31:01 15.8 C 2.69 g/m*3 15.8 C 0 km/h
319 15-05-2010 15:43:01 16 C 2.72 g/m*3 16 C 0 km/h
320 15-05-2010 15:55:01 16.2 C 2.76 g/m*3 16.2 C 0 km/h
321 15-05-2010 16:07:02 16.2 C 2.76 g/m*3 16.2 C 0 km/h
322 15-05-2010 16:19:01 15.1 C 2.58 g/m*3 15.1 C 0 km/h
323 15-05-2010 16:31:01 14.4 C 2.47 g/m*3 14.4 C 0 km/h
324 15-05-2010 16:43:01 14.4 C 2.97 g/m*3 14.4 C 0 km/h
325 15-05-2010 16:55:01 13.8 C 2.98 g/m*3 13.8 C 0 km/h
Sensor: Nr:Datum:Temp:Abs-Feuchte:Windchill:Wind:
Aussen-T/F 326 15-05-2010 17:07:02 13.9 C 3.12 g/m*3 13.9 C 0 km/h
327 15-05-2010 17:19:01 14 C 3.02 g/m*3 14 C 0 km/h
328 15-05-2010 17:31:02 14.1 C 3.16 g/m*3 14.1 C 0 km/h
329 15-05-2010 17:43:02 14 C 3.26 g/m*3 14 C 0 km/h
330 15-05-2010 17:55:02 14 C 3.26 g/m*3 14 C 0 km/h
331 15-05-2010 18:07:02 13.7 C 3.43 g/m*3 13.7 C 0 km/h
332 15-05-2010 18:19:01 14 C 3.62 g/m*3 14 C 0 km/h
333 15-05-2010 18:31:02 13.8 C 3.46 g/m*3 13.8 C 0 km/h
334 15-05-2010 18:43:02 13.7 C 3.43 g/m*3 13.7 C 0 km/h
335 15-05-2010 18:55:02 13.9 C 3.36 g/m*3 13.9 C 0 km/h
336 15-05-2010 19:07:02 13.9 C 3.24 g/m*3 13.9 C 0 km/h
337 15-05-2010 19:19:02 14.6 C 3.5 g/m*3 14.6 C 0 km/h
338 15-05-2010 19:31:02 15.1 C 3.23 g/m*3 15.1 C 0 km/h
339 15-05-2010 19:43:02 14.9 C 3.44 g/m*3 14.9 C 0 km/h
340 15-05-2010 19:55:02 14.4 C 3.58 g/m*3 14.4 C 0 km/h
341 15-05-2010 20:07:02 13.9 C 4.2 g/m*3 13.9 C 0 km/h
342 15-05-2010 20:19:02 13.3 C 4.62 g/m*3 13.3 C 0 km/h
343 15-05-2010 20:31:02 12.4 C 4.48 g/m*3 12.4 C 0 km/h
344 15-05-2010 20:43:02 11.6 C 4.47 g/m*3 11.6 C 0 km/h
345 15-05-2010 20:55:02 11.3 C 4.59 g/m*3 11.3 C 0 km/h
346 15-05-2010 21:07:02 11.4 C 4.62 g/m*3 11.4 C 0 km/h
347 15-05-2010 21:19:02 11.1 C 4.53 g/m*3 11.1 C 0 km/h
348 15-05-2010 21:31:02 10.8 C 4.55 g/m*3 10.8 C 0 km/h
349 15-05-2010 21:43:02 10.8 C 4.84 g/m*3 10.8 C 0 km/h
350 15-05-2010 21:55:01 10.8 C 4.84 g/m*3 10.8 C 0 km/h
Sensor: Nr:Datum:Temp:Abs-Feuchte:Windchill:Wind:
Aussen-T/F 351 15-05-2010 22:07:02 10.8 C 4.94 g/m*3 10.8 C 0 km/h
352 15-05-2010 22:19:02 11 C 5 g/m*3 11 C 0 km/h
353 15-05-2010 22:32:02 11.1 C 4.83 g/m*3 11.1 C 0 km/h
354 15-05-2010 22:44:03 11.2 C 4.66 g/m*3 11.2 C 0 km/h
355 15-05-2010 22:56:03 11.2 C 4.66 g/m*3 11.2 C 0 km/h
356 15-05-2010 23:08:03 11.1 C 4.73 g/m*3 11.1 C 0 km/h
357 15-05-2010 23:20:03 10.9 C 4.97 g/m*3 10.9 C 0 km/h
358 15-05-2010 23:32:03 10.9 C 5.07 g/m*3 10.9 C 0 km/h
359 15-05-2010 23:44:03 10.8 C 5.04 g/m*3 10.8 C 0 km/h
360 15-05-2010 23:56:03 10.5 C 5.04 g/m*3 10.5 C 0 km/h

Legende:
   Min
   Max


Maximal/Minimal-Werte vom 13.05.2010 - 15.05.2010

Sensor Min Max Avg
Temp
(Aussen-T/F)
6.6 °C
13-05-2010  05:53:05
16.2 °C
15-05-2010  15:55:01
9.24 °C
Abs-Feuchte
(Aussen-T/F)
2.47 g/m*3
15-05-2010  16:31:01
8.21 g/m*3
14-05-2010  15:06:02
6.3 g/m*3
Windchill
(Aussen-T/F)
6.6 C
13-05-2010  05:53:05
16.2 C
15-05-2010  15:55:01
9.22 C

Die Daten stammen von einer Davis Vantage Pro 2 Wetter-Station und werden unter Linux mit der Software wview2wettercgi und aufbereitet. Alle Angaben erfolgen ohne Gewähr für ihre Vollständigkeit oder Richtigkeit.
Kontakt: Rainer Krienke krienke@uni-koblenz.de . Meine Webseiten an der Uni Koblenz oder privat.
Version: $Revision: 0.78 $